Time;durP1;ratioP1;P1;durP2;ratioP2;P2;SDS_P1;SDS_P2;PMS_P1;PMS_P2;Temp;Humidity;BMP_temperature;BMP_pressure;BME280_temperature;BME280_humidity;BME280_pressure;Samples;Min_cycle;Max_cycle;Signal;HPM_P1;HPM_P2
2022/12/14 00:01:26;;;;;;;249.07;130.70;;;2.90;60.30;;;;;;6163762;23;20716;-79
2022/12/14 00:03:54;;;;;;;225.65;120.75;;;2.90;1.00;;;;;;6163810;23;20037;-78
2022/12/14 00:06:25;;;;;;;225.70;122.97;;;2.90;1.00;;;;;;6163774;23;20013;-78
2022/12/14 00:08:55;;;;;;;220.88;118.15;;;2.90;1.00;;;;;;6163736;23;20029;-76
2022/12/14 00:11:22;;;;;;;215.07;118.65;;;2.90;1.00;;;;;;6163791;23;20024;-77
2022/12/14 00:13:53;;;;;;;226.93;122.35;;;2.90;1.00;;;;;;6163362;23;20076;-78
2022/12/14 00:16:20;;;;;;;218.73;120.43;;;2.90;1.00;;;;;;6163634;23;20010;-78
2022/12/14 00:18:51;;;;;;;239.73;129.80;;;2.90;1.00;;;;;;6127215;23;20017;-79
2022/12/14 00:21:18;;;;;;;227.55;120.28;;;2.90;1.00;;;;;;6164023;23;20037;-78
2022/12/14 00:23:49;;;;;;;225.13;120.40;;;2.90;1.00;;;;;;6163533;23;20013;-78
2022/12/14 00:26:18;;;;;;;230.95;123.03;;;2.70;1.00;;;;;;6163290;23;20477;-78
2022/12/14 00:28:47;;;;;;;243.48;130.52;;;2.70;1.00;;;;;;6163270;23;20026;-77
2022/12/14 00:31:15;;;;;;;248.63;132.27;;;2.60;99.90;;;;;;6166166;23;20068;-80
2022/12/14 00:33:43;;;;;;;228.25;120.10;;;2.70;99.90;;;;;;6165826;23;20017;-79
2022/12/14 00:36:12;;;;;;;235.63;125.72;;;2.70;99.90;;;;;;6164560;23;20013;-79
2022/12/14 00:38:40;;;;;;;238.65;124.45;;;2.80;99.90;;;;;;6164506;23;20311;-78
2022/12/14 00:41:10;;;;;;;233.00;123.25;;;2.80;1.00;;;;;;6163950;23;20024;-77
2022/12/14 00:43:38;;;;;;;280.20;151.52;;;2.90;46.60;;;;;;6163844;23;20022;-78
2022/12/14 00:46:05;;;;;;;271.35;145.95;;;2.90;1.00;;;;;;6164976;23;20465;-79
2022/12/14 00:48:33;;;;;;;263.95;141.10;;;2.90;1.00;;;;;;6165993;23;20072;-80
2022/12/14 00:51:00;;;;;;;263.98;143.70;;;2.90;18.30;;;;;;6130293;23;20026;-77
2022/12/14 00:53:28;;;;;;;264.80;143.70;;;3.00;1.00;;;;;;6166064;23;20076;-77
2022/12/14 00:55:55;;;;;;;259.42;139.15;;;3.00;74.40;;;;;;6165883;23;20040;-78
2022/12/14 00:58:26;;;;;;;220.10;119.55;;;3.10;11.00;;;;;;6166089;23;20014;-78
2022/12/14 01:01:00;;;;;;;210.95;118.25;;;3.20;1.00;;;;;;6166225;23;20022;-77
2022/12/14 01:03:27;;;;;;;216.80;116.05;;;3.20;1.00;;;;;;6166088;23;20049;-78
2022/12/14 01:05:54;;;;;;;218.38;118.75;;;3.20;1.00;;;;;;6165397;23;20021;-78
2022/12/14 01:08:22;;;;;;;222.38;118.80;;;3.20;1.00;;;;;;6173994;23;20310;-78
2022/12/14 01:10:50;;;;;;;229.30;124.03;;;3.20;1.00;;;;;;6176324;23;20017;-80
2022/12/14 01:13:17;;;;;;;221.55;121.43;;;3.20;1.00;;;;;;6174716;23;20045;-78
2022/12/14 01:15:46;;;;;;;214.77;118.32;;;3.20;1.00;;;;;;6165315;23;20076;-77
2022/12/14 01:18:14;;;;;;;225.05;123.00;;;3.10;1.00;;;;;;6165525;23;20093;-78
2022/12/14 01:20:41;;;;;;;215.80;119.82;;;3.00;1.00;;;;;;6165151;23;20097;-79
2022/12/14 01:23:09;;;;;;;225.70;122.32;;;2.90;1.00;;;;;;6165525;23;20434;-78
2022/12/14 01:25:36;;;;;;;200.95;116.03;;;2.80;1.00;;;;;;6128672;23;20296;-77
2022/12/14 01:28:03;;;;;;;207.43;115.40;;;2.80;1.00;;;;;;6165162;23;20454;-76
2022/12/14 01:30:31;;;;;;;212.18;120.60;;;2.80;99.90;;;;;;6128707;23;20025;-77
2022/12/14 01:33:00;;;;;;;205.38;121.03;;;2.80;99.90;;;;;;6165314;23;20020;-78
2022/12/14 01:35:27;;;;;;;203.82;117.68;;;2.80;99.90;;;;;;6164898;23;20490;-78
2022/12/14 01:37:56;;;;;;;204.70;120.85;;;2.90;99.90;;;;;;6165246;23;20036;-78
2022/12/14 01:40:23;;;;;;;205.98;118.88;;;2.90;99.90;;;;;;6164839;23;20013;-78
2022/12/14 01:42:50;;;;;;;201.90;115.80;;;2.80;14.30;;;;;;6165196;23;20013;-78
2022/12/14 01:45:22;;;;;;;195.05;109.10;;;2.80;99.90;;;;;;6164702;23;20064;-78
2022/12/14 01:47:54;;;;;;;201.48;114.97;;;2.90;99.90;;;;;;6164663;23;20017;-78
2022/12/14 01:50:29;;;;;;;194.57;112.63;;;2.80;99.90;;;;;;6164630;23;20026;-78
2022/12/14 01:53:00;;;;;;;187.88;106.93;;;2.90;1.00;;;;;;6164830;23;20104;-79
2022/12/14 01:55:31;;;;;;;195.82;111.32;;;2.90;99.90;;;;;;6164425;23;20029;-78
2022/12/14 01:58:06;;;;;;;204.30;113.75;;;2.80;1.00;;;;;;6164332;23;20084;-78
2022/12/14 02:00:34;;;;;;;197.90;110.90;;;2.80;1.00;;;;;;6164888;23;20446;-78
2022/12/14 02:03:05;;;;;;;202.00;115.72;;;2.80;47.50;;;;;;6164915;23;20339;-78
2022/12/14 02:05:37;;;;;;;193.23;111.28;;;2.80;1.00;;;;;;6164427;23;20013;-78
2022/12/14 02:08:07;;;;;;;193.02;110.70;;;2.80;19.10;;;;;;6176739;23;20075;-79
2022/12/14 02:10:35;;;;;;;185.85;107.43;;;2.80;99.90;;;;;;6176759;23;20013;-78
2022/12/14 02:13:06;;;;;;;185.70;109.18;;;2.90;99.90;;;;;;6176762;23;20013;-77
2022/12/14 02:15:34;;;;;;;189.07;109.47;;;3.00;99.90;;;;;;6173958;23;20037;-78
2022/12/14 02:18:03;;;;;;;190.35;108.28;;;3.00;1.00;;;;;;6165327;23;20056;-79
2022/12/14 02:20:41;;;;;;;196.43;111.68;;;3.00;1.00;;;;;;6165311;23;20354;-77
2022/12/14 02:23:35;;;;;;;202.85;111.88;;;3.10;99.90;;;;;;6165414;23;20477;-78
2022/12/14 02:26:45;;;;;;;210.70;115.22;;;3.10;15.50;;;;;;6165108;23;20315;-77
2022/12/14 02:29:28;;;;;;;227.60;126.95;;;3.20;23.80;;;;;;6113415;23;20021;-83
2022/12/14 02:32:08;;;;;;;245.90;138.10;;;3.30;97.20;;;;;;6170398;23;20100;-84
2022/12/14 02:34:45;;;;;;;245.55;133.02;;;3.40;1.00;;;;;;6133606;23;20502;-83
2022/12/14 02:37:18;;;;;;;234.13;130.02;;;3.40;1.00;;;;;;6170050;23;20013;-84
2022/12/14 02:39:55;;;;;;;225.75;126.38;;;3.30;1.00;;;;;;6170861;23;20028;-84
2022/12/14 02:42:34;;;;;;;213.20;120.97;;;3.30;1.00;;;;;;6169563;23;20065;-84
2022/12/14 02:45:11;;;;;;;212.00;118.78;;;3.30;28.70;;;;;;6168524;23;20021;-84
2022/12/14 02:47:47;;;;;;;199.73;111.15;;;3.30;1.00;;;;;;6167358;23;20040;-84
2022/12/14 02:50:21;;;;;;;180.48;103.43;;;3.30;1.00;;;;;;6133690;23;20032;-84
2022/12/14 02:52:58;;;;;;;183.27;102.57;;;3.20;1.00;;;;;;6168324;23;20013;-84
2022/12/14 02:55:31;;;;;;;179.10;103.75;;;3.10;1.00;;;;;;6141670;23;20022;-84
2022/12/14 02:58:01;;;;;;;172.77;101.90;;;3.10;99.90;;;;;;6177217;23;20028;-84
2022/12/14 03:00:33;;;;;;;184.57;104.28;;;3.10;65.70;;;;;;6172637;23;20079;-84
2022/12/14 03:03:03;;;;;;;181.43;107.07;;;3.10;99.90;;;;;;6136984;23;20057;-85
2022/12/14 03:05:31;;;;;;;179.77;104.75;;;3.10;99.90;;;;;;6181962;23;20037;-84
2022/12/14 03:08:12;;;;;;;186.50;105.15;;;3.00;99.90;;;;;;6176087;23;20090;-84
2022/12/14 03:10:45;;;;;;;176.00;103.88;;;3.00;99.90;;;;;;6182328;23;20017;-83
2022/12/14 03:13:25;;;;;;;170.65;102.80;;;3.00;99.90;;;;;;6173991;23;20084;-83
2022/12/14 03:15:58;;;;;;;172.30;102.30;;;3.00;99.90;;;;;;6168164;23;20028;-84
2022/12/14 03:18:30;;;;;;;174.95;102.80;;;3.10;1.00;;;;;;6167949;23;20052;-84
2022/12/14 03:21:00;;;;;;;176.27;102.95;;;3.10;99.90;;;;;;6132246;23;20014;-84
2022/12/14 03:23:35;;;;;;;173.05;101.63;;;3.10;99.90;;;;;;6131953;23;20028;-83
2022/12/14 03:26:10;;;;;;;173.85;102.97;;;3.20;99.90;;;;;;6167072;23;20022;-83
2022/12/14 03:28:44;;;;;;;175.50;102.03;;;3.20;99.90;;;;;;6132710;23;20450;-84
2022/12/14 03:31:16;;;;;;;169.32;103.03;;;3.10;99.90;;;;;;6133236;23;20021;-84
2022/12/14 03:33:46;;;;;;;174.93;99.50;;;3.20;1.00;;;;;;6168627;23;20017;-85
2022/12/14 03:36:20;;;;;;;182.73;101.38;;;3.10;99.90;;;;;;6169047;23;20016;-83
2022/12/14 03:38:50;;;;;;;181.77;104.03;;;3.10;99.90;;;;;;6167615;23;20097;-84
2022/12/14 03:41:28;;;;;;;174.00;102.25;;;3.10;1.00;;;;;;6131363;23;20017;-84
2022/12/14 03:44:08;;;;;;;178.45;103.40;;;3.10;1.00;;;;;;6131798;23;20040;-84
2022/12/14 03:46:42;;;;;;;168.93;101.45;;;3.20;1.00;;;;;;6166911;23;20017;-83
2022/12/14 03:49:18;;;;;;;170.02;100.10;;;3.20;1.00;;;;;;6167192;23;20041;-84
2022/12/14 03:51:57;;;;;;;175.48;101.82;;;3.20;99.90;;;;;;6167161;23;20014;-84
2022/12/14 03:54:32;;;;;;;172.93;98.78;;;3.30;99.90;;;;;;6166811;23;20446;-84
2022/12/14 03:57:05;;;;;;;170.07;102.43;;;3.30;99.90;;;;;;6131163;23;20363;-82
2022/12/14 03:59:37;;;;;;;172.45;101.50;;;3.30;99.90;;;;;;6167314;23;20024;-84
2022/12/14 04:02:14;;;;;;;166.52;99.13;;;3.20;99.90;;;;;;6166965;23;20068;-83
2022/12/14 04:04:46;;;;;;;171.93;101.05;;;3.30;1.00;;;;;;6174837;23;20482;-86
2022/12/14 04:07:17;;;;;;;167.55;99.72;;;3.40;1.00;;;;;;6137704;23;20025;-85
2022/12/14 04:09:50;;;;;;;162.93;99.13;;;3.30;99.90;;;;;;6175141;23;20017;-84
2022/12/14 04:20:50;;;;;;;179.80;110.95;;;3.30;99.90;;;;;;6170162;23;20017;-84
2022/12/14 04:26:03;;;;;;;164.95;103.22;;;3.40;1.00;;;;;;6133960;23;20017;-84
2022/12/14 04:26:13;;;;;;;164.35;99.18;;;3.40;1.00;;;;;;6180142;23;20005;-83
2022/12/14 04:31:37;;;;;;;160.63;95.90;;;3.40;99.90;;;;;;6115057;23;20087;-83
2022/12/14 04:34:07;;;;;;;160.93;94.55;;;3.40;1.00;;;;;;6178398;23;20021;-84
2022/12/14 04:36:40;;;;;;;157.75;95.05;;;3.40;34.80;;;;;;6133039;23;20022;-84
2022/12/14 04:39:12;;;;;;;161.10;97.95;;;3.40;99.90;;;;;;6132507;23;20025;-83
2022/12/14 04:41:44;;;;;;;156.13;96.00;;;3.50;99.90;;;;;;6171891;23;20010;-84
2022/12/14 04:44:22;;;;;;;162.50;96.18;;;3.50;24.90;;;;;;6172111;23;20017;-83
2022/12/14 04:46:53;;;;;;;149.52;89.95;;;3.50;28.30;;;;;;6133893;23;20546;-84
2022/12/14 04:49:27;;;;;;;147.77;90.45;;;3.50;99.90;;;;;;6168898;23;20017;-83
2022/12/14 04:52:02;;;;;;;157.10;90.60;;;3.50;99.90;;;;;;6135214;23;20080;-85
2022/12/14 04:54:35;;;;;;;144.07;84.93;;;3.50;99.90;;;;;;6138356;23;20087;-83
2022/12/14 04:57:09;;;;;;;143.77;89.45;;;3.50;99.90;;;;;;6175749;23;20016;-85
2022/12/14 04:59:37;;;;;;;140.50;85.38;;;3.50;99.90;;;;;;6176917;23;20381;-83
2022/12/14 05:02:17;;;;;;;147.80;87.90;;;3.50;99.90;;;;;;6152412;23;20446;-85
2022/12/14 05:04:55;;;;;;;146.70;87.43;;;3.50;99.90;;;;;;6142886;23;20018;-83
2022/12/14 05:07:35;;;;;;;145.13;88.13;;;3.40;99.90;;;;;;6172263;23;20014;-83
2022/12/14 05:10:07;;;;;;;147.27;88.40;;;3.50;1.00;;;;;;6171334;23;20093;-83
2022/12/14 05:12:40;;;;;;;140.80;85.90;;;3.50;1.00;;;;;;6172542;23;20041;-83
2022/12/14 05:15:12;;;;;;;140.93;86.18;;;3.50;1.00;;;;;;6135253;23;20028;-83
2022/12/14 05:17:41;;;;;;;143.50;87.25;;;3.50;1.00;;;;;;6179819;23;20076;-83
2022/12/14 05:20:17;;;;;;;143.15;85.53;;;3.50;1.00;;;;;;6142728;23;20048;-84
2022/12/14 05:22:44;;;;;;;;;;;3.50;1.00;;;;;;6156814;23;20010;-84
2022/12/14 05:25:13;;;;;;;147.25;91.35;;;3.50;1.00;;;;;;6187454;23;19916;-85
2022/12/14 05:27:42;;;;;;;141.52;89.25;;;3.50;1.00;;;;;;6176956;23;20040;-83
2022/12/14 05:30:11;;;;;;;156.93;93.13;;;3.60;78.40;;;;;;6141002;23;20087;-84
2022/12/14 05:32:39;;;;;;;155.57;95.30;;;3.50;99.90;;;;;;6167019;23;20081;-81
2022/12/14 05:35:09;;;;;;;158.38;95.97;;;3.40;99.90;;;;;;6180129;23;20036;-84
2022/12/14 05:37:39;;;;;;;149.00;90.43;;;3.40;1.00;;;;;;6133738;23;20104;-84
2022/12/14 05:40:08;;;;;;;132.30;80.10;;;3.40;1.00;;;;;;6174686;23;20017;-84
2022/12/14 05:42:37;;;;;;;135.18;81.95;;;3.30;99.90;;;;;;6139810;23;20021;-85
2022/12/14 05:45:06;;;;;;;130.85;81.80;;;3.20;1.00;;;;;;6189716;23;19997;-84
2022/12/14 05:47:34;;;;;;;130.18;78.82;;;3.30;1.00;;;;;;6182106;23;20049;-83
2022/12/14 05:50:03;;;;;;;136.95;84.57;;;3.30;1.00;;;;;;6169959;23;20063;-84
2022/12/14 05:52:31;;;;;;;133.55;80.15;;;3.30;99.90;;;;;;6169521;23;20017;-84
2022/12/14 05:55:00;;;;;;;133.63;85.25;;;3.30;1.00;;;;;;6168892;23;20462;-85
2022/12/14 05:57:28;;;;;;;143.50;88.55;;;3.40;1.00;;;;;;6168183;23;20029;-83
2022/12/14 05:59:55;;;;;;;133.02;81.95;;;3.40;1.00;;;;;;6169215;23;20025;-83
2022/12/14 06:02:22;;;;;;;129.07;81.60;;;3.30;99.90;;;;;;6134312;23;20021;-85
2022/12/14 06:04:50;;;;;;;133.32;80.40;;;3.30;1.00;;;;;;6170662;23;20101;-84
2022/12/14 06:07:19;;;;;;;139.18;86.32;;;3.10;1.00;;;;;;6172129;23;20010;-85
2022/12/14 06:09:46;;;;;;;139.25;85.55;;;3.10;1.00;;;;;;6170166;23;20013;-84
2022/12/14 06:12:15;;;;;;;142.85;84.20;;;3.00;99.90;;;;;;6174212;23;20044;-82
2022/12/14 06:14:42;;;;;;;136.88;85.22;;;3.00;1.00;;;;;;6143937;23;20021;-81
2022/12/14 06:17:10;;;;;;;147.68;89.63;;;3.10;1.00;;;;;;6177703;23;20014;-83
2022/12/14 06:19:38;;;;;;;155.63;93.80;;;3.10;1.00;;;;;;6140256;23;20073;-81
2022/12/14 06:22:06;;;;;;;161.00;95.03;;;3.20;1.00;;;;;;6160705;23;20025;-83
2022/12/14 06:24:33;;;;;;;148.38;88.43;;;3.20;1.00;;;;;;6172654;23;20021;-83
2022/12/14 06:27:00;;;;;;;148.23;91.40;;;3.30;1.00;;;;;;6144196;23;20021;-85
2022/12/14 06:29:29;;;;;;;142.40;85.32;;;3.30;1.00;;;;;;6168891;23;20018;-85
2022/12/14 06:31:59;;;;;;;143.30;89.88;;;3.20;1.00;;;;;;6170306;23;20018;-82
2022/12/14 06:34:26;;;;;;;128.18;81.07;;;3.20;1.00;;;;;;6168403;23;20021;-82
2022/12/14 06:36:54;;;;;;;148.07;90.50;;;3.20;1.00;;;;;;6132071;23;20030;-85
2022/12/14 06:39:21;;;;;;;160.32;99.38;;;3.10;99.90;;;;;;6132533;23;20023;-85
2022/12/14 06:41:50;;;;;;;161.95;98.80;;;3.10;1.00;;;;;;6158413;23;20249;-84
2022/12/14 06:44:20;;;;;;;173.75;105.35;;;3.10;1.00;;;;;;6159013;23;20374;-82
2022/12/14 06:46:49;;;;;;;187.68;117.95;;;3.10;1.00;;;;;;6168301;23;20025;-81
2022/12/14 06:49:17;;;;;;;185.25;113.38;;;3.10;1.00;;;;;;6167498;23;20439;-79
2022/12/14 06:51:45;;;;;;;178.05;108.97;;;3.10;1.00;;;;;;6167429;23;20072;-77
2022/12/14 06:54:13;;;;;;;180.55;107.20;;;3.10;1.00;;;;;;6167264;23;20014;-79
2022/12/14 06:56:40;;;;;;;183.35;109.78;;;3.20;1.00;;;;;;6130727;23;20033;-78
2022/12/14 06:59:08;;;;;;;160.13;100.00;;;3.00;99.90;;;;;;6166787;23;20022;-81
2022/12/14 07:01:37;;;;;;;153.93;96.38;;;2.90;1.00;;;;;;6132574;23;20021;-83
2022/12/14 07:04:07;;;;;;;155.30;101.38;;;2.90;1.00;;;;;;6169118;23;20186;-80
2022/12/14 07:06:37;;;;;;;153.82;101.97;;;3.00;99.90;;;;;;6167810;23;20017;-80
2022/12/14 07:09:07;;;;;;;151.75;97.05;;;3.10;1.00;;;;;;6167528;23;20021;-83
2022/12/14 07:11:34;;;;;;;120.43;77.97;;;3.20;87.70;;;;;;6131553;23;20066;-79
2022/12/14 07:14:04;;;;;;;122.25;79.13;;;3.30;88.50;;;;;;6167499;23;20013;-82
2022/12/14 07:16:33;;;;;;;122.25;78.60;;;3.30;99.90;;;;;;6168525;23;20024;-79
2022/12/14 07:19:01;;;;;;;121.10;78.25;;;3.40;1.00;;;;;;6169676;23;20505;-81
2022/12/14 07:21:32;;;;;;;123.13;75.38;;;3.40;1.00;;;;;;6168210;23;20446;-80
2022/12/14 07:24:01;;;;;;;133.07;80.53;;;3.50;99.90;;;;;;6132201;23;20072;-80
2022/12/14 07:26:29;;;;;;;142.80;84.40;;;3.50;99.90;;;;;;6168201;23;20121;-80
2022/12/14 07:28:59;;;;;;;120.88;72.80;;;3.60;99.90;;;;;;6157416;23;20104;-80
2022/12/14 07:31:28;;;;;;;121.22;74.68;;;3.70;1.00;;;;;;6131915;23;20027;-78
2022/12/14 07:33:57;;;;;;;110.32;66.65;;;3.70;1.00;;;;;;6167351;23;20097;-80
2022/12/14 07:36:27;;;;;;;115.63;69.68;;;3.80;1.00;;;;;;6131293;23;20018;-79
2022/12/14 07:38:56;;;;;;;111.25;67.22;;;3.80;99.90;;;;;;6130867;23;20100;-80
2022/12/14 07:41:25;;;;;;;119.00;70.95;;;3.80;99.90;;;;;;6130747;23;20612;-80
2022/12/14 07:43:55;;;;;;;121.00;70.97;;;3.80;99.90;;;;;;6166873;23;20344;-80
2022/12/14 07:46:24;;;;;;;118.85;70.07;;;3.80;1.00;;;;;;6131110;23;20076;-81
2022/12/14 07:48:53;;;;;;;118.20;68.50;;;3.70;99.90;;;;;;6131254;23;20048;-81
2022/12/14 07:51:22;;;;;;;112.47;70.03;;;3.60;99.90;;;;;;6130428;23;20072;-80
2022/12/14 07:53:50;;;;;;;139.57;85.25;;;3.70;99.90;;;;;;6132532;23;20304;-78
2022/12/14 07:56:23;;;;;;;168.50;98.38;;;3.80;1.00;;;;;;6167063;23;20434;-79
2022/12/14 07:58:51;;;;;;;148.30;91.15;;;3.80;99.90;;;;;;6166579;23;20018;-79
2022/12/14 08:01:21;;;;;;;148.95;89.65;;;3.90;1.00;;;;;;6166608;23;20025;-79
2022/12/14 08:03:50;;;;;;;146.77;85.50;;;4.00;1.00;;;;;;6167142;23;20024;-80
2022/12/14 08:06:19;;;;;;;146.52;90.10;;;4.10;1.00;;;;;;6130639;23;20025;-80
2022/12/14 08:08:48;;;;;;;151.07;92.15;;;4.20;99.90;;;;;;6167695;23;20017;-79
2022/12/14 08:11:18;;;;;;;150.65;95.20;;;4.30;1.00;;;;;;6169895;23;20013;-80
2022/12/14 08:13:48;;;;;;;148.85;92.57;;;4.40;1.00;;;;;;6168033;23;20025;-79
2022/12/14 08:16:16;;;;;;;156.60;95.75;;;4.40;99.90;;;;;;6185515;23;20024;-81
2022/12/14 08:18:44;;;;;;;163.93;103.72;;;4.50;1.00;;;;;;6178231;23;20021;-82
2022/12/14 08:21:14;;;;;;;146.00;91.18;;;4.70;1.00;;;;;;6182794;23;20021;-83
2022/12/14 08:23:43;;;;;;;141.25;88.68;;;4.60;1.00;;;;;;6174414;23;20346;-80
2022/12/14 08:26:11;;;;;;;146.90;90.80;;;4.70;99.90;;;;;;6137166;23;20477;-85
2022/12/14 08:28:40;;;;;;;144.48;87.03;;;4.80;99.90;;;;;;6141237;23;20025;-84
2022/12/14 08:31:12;;;;;;;128.40;83.07;;;4.90;99.90;;;;;;6136240;23;20335;-84
2022/12/14 08:33:42;;;;;;;131.52;80.43;;;5.00;1.00;;;;;;6011650;23;20020;-82
2022/12/14 08:36:12;;;;;;;123.78;81.20;;;4.90;1.00;;;;;;6021608;23;20038;-82
2022/12/14 08:38:40;;;;;;;122.03;78.40;;;4.90;1.00;;;;;;6030795;23;20008;-81
2022/12/14 08:41:09;;;;;;;139.40;85.95;;;4.90;1.00;;;;;;6057727;23;20039;-84
2022/12/14 08:43:37;;;;;;;143.63;89.38;;;5.00;99.90;;;;;;6072650;23;20022;-83
2022/12/14 08:46:07;;;;;;;143.25;90.80;;;5.10;99.90;;;;;;6067171;23;20043;-82
2022/12/14 08:48:35;;;;;;;151.77;96.07;;;5.10;99.90;;;;;;6063627;23;20139;-78
2022/12/14 08:51:06;;;;;;;144.68;90.75;;;5.00;99.90;;;;;;6057817;23;20023;-78
2022/12/14 08:53:34;;;;;;;134.98;85.95;;;4.90;99.90;;;;;;6056536;23;20019;-78
2022/12/14 08:56:05;;;;;;;151.98;93.60;;;4.90;1.00;;;;;;6054111;23;20018;-77
2022/12/14 08:58:33;;;;;;;154.13;98.47;;;4.90;1.00;;;;;;6052252;23;20440;-79
2022/12/14 09:01:03;;;;;;;164.68;102.95;;;4.90;1.00;;;;;;6051116;23;20021;-79
2022/12/14 09:03:30;;;;;;;163.93;98.57;;;4.70;1.00;;;;;;6049067;23;20341;-80
2022/12/14 09:06:01;;;;;;;169.73;107.05;;;4.70;99.90;;;;;;6050811;23;20025;-77
2022/12/14 09:08:30;;;;;;;169.93;107.63;;;4.60;1.00;;;;;;6051686;23;20024;-79
2022/12/14 09:10:57;;;;;;;175.65;108.90;;;4.40;1.00;;;;;;6050467;23;20089;-78
2022/12/14 09:13:25;;;;;;;163.52;103.65;;;4.50;99.90;;;;;;6052926;23;20023;-77
2022/12/14 09:15:59;;;;;;;172.38;105.93;;;4.50;1.00;;;;;;6050550;23;20019;-77
2022/12/14 09:18:27;;;;;;;169.55;104.82;;;4.50;1.00;;;;;;6051826;23;20055;-78
2022/12/14 09:20:55;;;;;;;152.90;99.47;;;4.60;1.00;;;;;;6049863;23;20456;-78
2022/12/14 09:23:24;;;;;;;146.27;94.68;;;4.70;1.00;;;;;;6050033;23;20090;-78
2022/12/14 09:26:00;;;;;;;139.65;89.65;;;4.80;99.90;;;;;;6049555;23;20016;-79
2022/12/14 09:28:28;;;;;;;137.40;86.43;;;4.90;1.00;;;;;;6052594;23;20071;-79
2022/12/14 09:30:57;;;;;;;124.63;80.03;;;5.00;21.10;;;;;;6052468;23;20023;-77
2022/12/14 09:33:25;;;;;;;125.35;79.93;;;5.20;1.00;;;;;;6049526;23;20087;-78
2022/12/14 09:35:52;;;;;;;118.00;75.50;;;5.20;75.00;;;;;;6049816;23;20016;-77
2022/12/14 09:38:20;;;;;;;120.47;75.82;;;5.10;1.00;;;;;;6049378;23;20019;-75
2022/12/14 09:40:55;;;;;;;120.13;77.50;;;5.00;96.50;;;;;;6048614;23;20341;-78
2022/12/14 09:43:36;;;;;;;100.85;64.35;;;5.00;99.90;;;;;;6049674;23;20049;-75
2022/12/14 09:46:19;;;;;;;117.32;74.85;;;5.00;1.00;;;;;;6049931;23;20019;-78
2022/12/14 09:48:47;;;;;;;109.18;72.35;;;4.90;1.00;;;;;;6048614;23;20042;-77
2022/12/14 09:51:19;;;;;;;102.40;68.20;;;4.90;1.00;;;;;;6048677;23;20078;-77
2022/12/14 09:53:50;;;;;;;100.93;64.45;;;5.00;1.00;;;;;;6049157;23;20039;-78
2022/12/14 09:56:20;;;;;;;98.85;62.47;;;4.90;1.00;;;;;;6048633;23;20015;-80
2022/12/14 09:58:54;;;;;;;101.40;65.50;;;5.10;1.00;;;;;;6013756;23;20352;-79
2022/12/14 10:01:46;;;;;;;102.15;66.72;;;5.20;1.00;;;;;;6049005;23;20015;-77
2022/12/14 10:04:26;;;;;;;122.18;76.05;;;5.40;99.90;;;;;;6048792;23;20028;-77
2022/12/14 10:07:01;;;;;;;108.15;68.28;;;5.40;1.00;;;;;;6048384;23;20448;-79
2022/12/14 10:09:35;;;;;;;106.28;64.88;;;5.40;1.00;;;;;;6048106;23;20026;-77
2022/12/14 10:12:14;;;;;;;111.10;69.53;;;5.30;1.00;;;;;;6048396;23;20334;-79
2022/12/14 10:14:56;;;;;;;122.47;74.63;;;5.30;1.00;;;;;;6050239;23;20011;-77
2022/12/14 10:17:34;;;;;;;120.93;74.72;;;5.20;99.90;;;;;;6049309;23;20019;-78
2022/12/14 10:20:11;;;;;;;121.78;76.95;;;4.90;1.00;;;;;;6051203;23;20016;-78
2022/12/14 10:22:42;;;;;;;122.28;78.38;;;4.80;91.60;;;;;;6050331;23;20349;-79
2022/12/14 10:25:14;;;;;;;133.88;83.68;;;4.90;99.90;;;;;;6053795;23;20022;-80
2022/12/14 10:27:48;;;;;;;112.65;69.88;;;5.00;99.90;;;;;;6053961;23;20052;-79
2022/12/14 10:30:19;;;;;;;109.72;70.55;;;5.10;99.90;;;;;;6053305;23;20030;-78
2022/12/14 10:32:51;;;;;;;111.40;70.50;;;5.30;1.00;;;;;;6048018;23;20019;-78
2022/12/14 10:35:23;;;;;;;107.22;68.70;;;5.50;1.00;;;;;;6048174;23;20022;-78
2022/12/14 10:38:00;;;;;;;102.50;64.40;;;5.70;99.90;;;;;;6047835;23;20020;-78
2022/12/14 10:40:30;;;;;;;102.03;60.67;;;5.70;1.00;;;;;;6049191;23;20090;-79
2022/12/14 10:43:11;;;;;;;91.95;57.92;;;5.70;1.00;;;;;;6049393;23;20091;-79
2022/12/14 10:45:47;;;;;;;90.25;59.92;;;5.80;34.70;;;;;;6048791;23;20467;-77
2022/12/14 10:48:38;;;;;;;93.18;59.45;;;5.70;1.00;;;;;;6048570;23;20042;-77
2022/12/14 10:51:11;;;;;;;99.35;63.13;;;5.60;99.90;;;;;;6047889;23;20023;-78
2022/12/14 10:53:44;;;;;;;90.93;59.75;;;5.80;99.90;;;;;;6047829;23;20039;-78
2022/12/14 10:56:16;;;;;;;93.70;62.72;;;5.60;19.80;;;;;;6047322;23;20015;-80
2022/12/14 10:58:43;;;;;;;95.18;62.50;;;5.40;1.00;;;;;;6048042;23;20023;-77
2022/12/14 11:01:15;;;;;;;104.10;70.45;;;5.20;1.00;;;;;;6013399;23;20050;-78
2022/12/14 11:03:46;;;;;;;117.22;75.43;;;5.10;1.00;;;;;;6047948;23;20015;-77
2022/12/14 11:06:17;;;;;;;113.63;72.28;;;5.20;1.00;;;;;;6047617;23;20023;-78
2022/12/14 11:08:47;;;;;;;110.32;71.68;;;5.20;1.00;;;;;;6047442;23;20019;-77
2022/12/14 11:11:17;;;;;;;113.85;71.15;;;5.20;1.00;;;;;;6047554;23;20030;-77
2022/12/14 11:13:49;;;;;;;117.65;75.20;;;5.20;99.90;;;;;;6047740;23;20038;-80
2022/12/14 11:16:28;;;;;;;113.97;75.18;;;5.20;99.90;;;;;;6047256;23;20304;-78
2022/12/14 11:18:59;;;;;;;129.70;84.13;;;5.20;37.20;;;;;;6047566;23;20019;-78
2022/12/14 11:21:32;;;;;;;134.45;84.95;;;5.30;1.00;;;;;;6047845;23;20177;-78
2022/12/14 11:24:01;;;;;;;132.45;82.60;;;5.40;99.90;;;;;;6047348;23;20476;-79
2022/12/14 11:26:33;;;;;;;135.63;86.18;;;5.60;1.00;;;;;;6036853;23;20016;-79
2022/12/14 11:29:02;;;;;;;144.10;88.35;;;5.80;1.00;;;;;;6013347;23;20119;-78
2022/12/14 11:31:35;;;;;;;153.10;93.30;;;6.00;1.00;;;;;;6047938;23;20011;-80
2022/12/14 11:34:04;;;;;;;156.82;99.20;;;5.90;1.00;;;;;;6052779;23;20071;-79
2022/12/14 11:36:35;;;;;;;151.63;96.20;;;5.80;1.00;;;;;;6054362;23;20023;-79
2022/12/14 11:39:06;;;;;;;148.40;93.85;;;5.90;1.00;;;;;;6048153;23;20011;-80
2022/12/14 11:41:35;;;;;;;156.48;96.68;;;6.00;1.00;;;;;;6017058;23;20061;-78
2022/12/14 11:44:05;;;;;;;157.20;98.03;;;6.10;99.90;;;;;;6049095;23;20020;-78
2022/12/14 11:46:45;;;;;;;142.75;91.35;;;6.20;99.90;;;;;;6047328;23;20015;-80
2022/12/14 11:49:25;;;;;;;141.70;90.70;;;6.20;99.90;;;;;;6047124;23;20102;-78
2022/12/14 11:52:02;;;;;;;134.82;88.53;;;6.30;1.00;;;;;;6047963;23;20441;-78
2022/12/14 11:54:30;;;;;;;129.98;82.57;;;6.30;1.00;;;;;;6047443;23;20020;-79
2022/12/14 11:57:01;;;;;;;140.88;86.80;;;6.20;1.00;;;;;;6047692;23;20035;-78
2022/12/14 11:59:36;;;;;;;130.52;85.70;;;6.10;1.00;;;;;;6047901;23;20015;-79
2022/12/14 12:02:20;;;;;;;132.55;85.10;;;6.20;99.90;;;;;;6053003;23;20023;-78
2022/12/14 12:04:50;;;;;;;135.27;86.35;;;6.30;99.90;;;;;;6055282;23;20019;-76
2022/12/14 12:07:29;;;;;;;129.13;83.82;;;6.40;1.00;;;;;;6051161;23;20016;-80
2022/12/14 12:10:02;;;;;;;132.18;84.63;;;6.50;1.00;;;;;;6049067;23;20019;-79
2022/12/14 12:12:30;;;;;;;129.40;84.70;;;6.60;1.00;;;;;;6047170;23;20018;-77
2022/12/14 12:14:59;;;;;;;123.53;81.60;;;6.80;1.00;;;;;;6047657;23;20038;-79
2022/12/14 12:17:43;;;;;;;121.55;82.35;;;7.00;1.00;;;;;;6047092;23;20042;-77
2022/12/14 12:20:23;;;;;;;122.38;79.95;;;7.00;1.00;;;;;;6046739;23;20046;-78
2022/12/14 12:22:57;;;;;;;123.75;81.78;;;7.00;99.90;;;;;;6047103;23;20393;-79
2022/12/14 12:25:26;;;;;;;130.43;84.40;;;7.00;1.00;;;;;;6047217;23;20015;-79
2022/12/14 12:28:03;;;;;;;130.05;85.78;;;7.10;1.00;;;;;;6047180;23;20326;-79
2022/12/14 12:30:34;;;;;;;139.23;90.82;;;7.00;1.00;;;;;;6046898;23;20030;-78
2022/12/14 12:33:11;;;;;;;139.25;91.68;;;7.00;1.00;;;;;;6047225;23;20457;-77
2022/12/14 12:35:45;;;;;;;128.18;83.68;;;6.90;1.00;;;;;;6046358;23;20011;-79
2022/12/14 12:38:18;;;;;;;119.57;78.97;;;6.90;1.00;;;;;;6046302;23;20113;-78
2022/12/14 12:40:55;;;;;;;114.05;76.75;;;7.10;1.00;;;;;;6046692;23;20452;-77
2022/12/14 12:43:28;;;;;;;117.22;78.35;;;7.10;1.00;;;;;;6048529;23;20023;-78
2022/12/14 12:45:59;;;;;;;102.57;68.10;;;7.00;1.00;;;;;;6048232;23;20015;-78
2022/12/14 12:48:31;;;;;;;110.35;71.20;;;7.00;99.90;;;;;;6013495;23;20437;-77
2022/12/14 12:51:02;;;;;;;105.53;68.25;;;6.90;1.00;;;;;;6048490;23;20039;-78
2022/12/14 12:53:34;;;;;;;110.13;73.03;;;6.90;1.00;;;;;;6038603;23;20078;-78
2022/12/14 12:56:08;;;;;;;116.28;76.00;;;6.90;1.00;;;;;;6049104;23;20055;-78
2022/12/14 12:58:38;;;;;;;127.63;82.15;;;7.00;1.00;;;;;;6048575;23;20015;-79
2022/12/14 13:01:18;;;;;;;131.40;86.70;;;7.00;1.00;;;;;;6048970;23;20074;-77
2022/12/14 13:03:50;;;;;;;132.70;85.45;;;6.80;1.00;;;;;;6049181;23;20023;-79